sensor_id;sensor_type;location;lat;lon;timestamp;temperature;humidity
52849;DHT22;38714;53.180;5.812;2024-03-02T00:02:12;7.80;99.90
52849;DHT22;38714;53.180;5.812;2024-03-02T00:04:37;7.80;99.90
52849;DHT22;38714;53.180;5.812;2024-03-02T00:07:03;7.70;99.90
52849;DHT22;38714;53.180;5.812;2024-03-02T00:09:29;7.70;99.90
52849;DHT22;38714;53.180;5.812;2024-03-02T00:11:55;7.70;99.90
52849;DHT22;38714;53.180;5.812;2024-03-02T00:14:21;7.70;99.90
52849;DHT22;38714;53.180;5.812;2024-03-02T00:16:46;7.70;99.90
52849;DHT22;38714;53.180;5.812;2024-03-02T00:19:12;7.70;99.90
52849;DHT22;38714;53.180;5.812;2024-03-02T00:21:38;7.70;99.90
52849;DHT22;38714;53.180;5.812;2024-03-02T00:24:36;7.70;99.90
52849;DHT22;38714;53.180;5.812;2024-03-02T00:27:04;7.70;99.90
52849;DHT22;38714;53.180;5.812;2024-03-02T00:29:30;7.70;99.90
52849;DHT22;38714;53.180;5.812;2024-03-02T00:31:57;7.70;99.90
52849;DHT22;38714;53.180;5.812;2024-03-02T00:34:23;7.70;99.90
52849;DHT22;38714;53.180;5.812;2024-03-02T00:36:49;7.70;99.90
52849;DHT22;38714;53.180;5.812;2024-03-02T00:39:15;7.70;99.90
52849;DHT22;38714;53.180;5.812;2024-03-02T00:41:42;7.70;99.90
52849;DHT22;38714;53.180;5.812;2024-03-02T00:44:11;7.70;99.90
52849;DHT22;38714;53.180;5.812;2024-03-02T00:46:38;7.70;99.90
52849;DHT22;38714;53.180;5.812;2024-03-02T00:49:11;7.70;99.90
52849;DHT22;38714;53.180;5.812;2024-03-02T00:51:39;7.70;99.90
52849;DHT22;38714;53.180;5.812;2024-03-02T00:54:07;7.60;99.90
52849;DHT22;38714;53.180;5.812;2024-03-02T00:56:33;7.60;99.90
52849;DHT22;38714;53.180;5.812;2024-03-02T00:59:00;7.60;99.90
52849;DHT22;38714;53.180;5.812;2024-03-02T01:01:26;7.60;99.90
52849;DHT22;38714;53.180;5.812;2024-03-02T01:03:52;7.50;99.90
52849;DHT22;38714;53.180;5.812;2024-03-02T01:06:18;7.60;99.90
52849;DHT22;38714;53.180;5.812;2024-03-02T01:08:44;7.50;99.90
52849;DHT22;38714;53.180;5.812;2024-03-02T01:11:10;7.50;99.90
52849;DHT22;38714;53.180;5.812;2024-03-02T01:13:35;7.50;99.90
52849;DHT22;38714;53.180;5.812;2024-03-02T01:16:01;7.50;99.90
52849;DHT22;38714;53.180;5.812;2024-03-02T01:18:28;7.50;99.90
52849;DHT22;38714;53.180;5.812;2024-03-02T01:20:53;7.50;99.90
52849;DHT22;38714;53.180;5.812;2024-03-02T01:23:24;7.60;99.90
52849;DHT22;38714;53.180;5.812;2024-03-02T01:25:51;7.60;99.90
52849;DHT22;38714;53.180;5.812;2024-03-02T01:28:17;7.70;99.90
52849;DHT22;38714;53.180;5.812;2024-03-02T01:30:43;7.70;99.90
52849;DHT22;38714;53.180;5.812;2024-03-02T01:33:08;7.70;99.90
52849;DHT22;38714;53.180;5.812;2024-03-02T01:35:35;7.70;99.90
52849;DHT22;38714;53.180;5.812;2024-03-02T01:38:03;7.70;99.90
52849;DHT22;38714;53.180;5.812;2024-03-02T01:40:32;7.80;99.90
52849;DHT22;38714;53.180;5.812;2024-03-02T01:42:57;7.80;99.90
52849;DHT22;38714;53.180;5.812;2024-03-02T01:45:24;7.80;99.90
52849;DHT22;38714;53.180;5.812;2024-03-02T01:47:50;7.90;99.90
52849;DHT22;38714;53.180;5.812;2024-03-02T01:50:23;7.90;99.90
52849;DHT22;38714;53.180;5.812;2024-03-02T01:52:49;7.90;99.90
52849;DHT22;38714;53.180;5.812;2024-03-02T01:55:15;7.90;99.90
52849;DHT22;38714;53.180;5.812;2024-03-02T01:57:41;7.90;99.90
52849;DHT22;38714;53.180;5.812;2024-03-02T02:00:07;7.90;99.90
52849;DHT22;38714;53.180;5.812;2024-03-02T02:02:32;8.00;99.90
52849;DHT22;38714;53.180;5.812;2024-03-02T02:04:58;8.00;99.90
52849;DHT22;38714;53.180;5.812;2024-03-02T02:07:24;8.00;99.90
52849;DHT22;38714;53.180;5.812;2024-03-02T02:09:49;8.00;99.90
52849;DHT22;38714;53.180;5.812;2024-03-02T02:12:15;7.90;99.90
52849;DHT22;38714;53.180;5.812;2024-03-02T02:14:47;8.00;99.90
52849;DHT22;38714;53.180;5.812;2024-03-02T02:17:14;8.00;99.90
52849;DHT22;38714;53.180;5.812;2024-03-02T02:19:41;8.00;99.90
52849;DHT22;38714;53.180;5.812;2024-03-02T02:22:06;8.00;99.90
52849;DHT22;38714;53.180;5.812;2024-03-02T02:24:32;8.00;99.90
52849;DHT22;38714;53.180;5.812;2024-03-02T02:26:57;8.00;99.90
52849;DHT22;38714;53.180;5.812;2024-03-02T02:29:23;8.00;99.90
52849;DHT22;38714;53.180;5.812;2024-03-02T02:31:48;8.00;99.90
52849;DHT22;38714;53.180;5.812;2024-03-02T02:34:14;8.00;99.90
52849;DHT22;38714;53.180;5.812;2024-03-02T02:36:41;8.00;99.90
52849;DHT22;38714;53.180;5.812;2024-03-02T02:39:11;8.10;99.90
52849;DHT22;38714;53.180;5.812;2024-03-02T02:41:38;8.10;99.90
52849;DHT22;38714;53.180;5.812;2024-03-02T02:44:04;8.10;99.90
52849;DHT22;38714;53.180;5.812;2024-03-02T02:46:30;8.10;99.90
52849;DHT22;38714;53.180;5.812;2024-03-02T02:48:55;8.10;99.90
52849;DHT22;38714;53.180;5.812;2024-03-02T02:51:21;8.10;99.90
52849;DHT22;38714;53.180;5.812;2024-03-02T02:53:47;8.10;99.90
52849;DHT22;38714;53.180;5.812;2024-03-02T02:56:12;8.10;99.90
52849;DHT22;38714;53.180;5.812;2024-03-02T02:58:40;8.10;99.90
52849;DHT22;38714;53.180;5.812;2024-03-02T03:01:05;8.10;99.90
52849;DHT22;38714;53.180;5.812;2024-03-02T03:03:31;8.10;99.90
52849;DHT22;38714;53.180;5.812;2024-03-02T03:05:56;8.00;99.90
52849;DHT22;38714;53.180;5.812;2024-03-02T03:08:22;8.00;99.90
52849;DHT22;38714;53.180;5.812;2024-03-02T03:10:49;8.00;99.90
52849;DHT22;38714;53.180;5.812;2024-03-02T03:13:15;8.00;99.90
52849;DHT22;38714;53.180;5.812;2024-03-02T03:15:40;8.00;99.90
52849;DHT22;38714;53.180;5.812;2024-03-02T03:18:06;8.00;99.90
52849;DHT22;38714;53.180;5.812;2024-03-02T03:20:33;8.00;99.90
52849;DHT22;38714;53.180;5.812;2024-03-02T03:22:59;7.90;99.90
52849;DHT22;38714;53.180;5.812;2024-03-02T03:25:25;7.90;99.90
52849;DHT22;38714;53.180;5.812;2024-03-02T03:27:50;7.90;99.90
52849;DHT22;38714;53.180;5.812;2024-03-02T03:30:18;7.90;99.90
52849;DHT22;38714;53.180;5.812;2024-03-02T03:32:44;7.80;99.90
52849;DHT22;38714;53.180;5.812;2024-03-02T03:35:09;7.80;99.90
52849;DHT22;38714;53.180;5.812;2024-03-02T03:37:35;7.80;99.90
52849;DHT22;38714;53.180;5.812;2024-03-02T03:40:04;7.80;99.90
52849;DHT22;38714;53.180;5.812;2024-03-02T03:42:37;7.80;99.90
52849;DHT22;38714;53.180;5.812;2024-03-02T03:45:03;7.80;99.90
52849;DHT22;38714;53.180;5.812;2024-03-02T03:47:29;7.80;99.90
52849;DHT22;38714;53.180;5.812;2024-03-02T03:49:56;7.80;99.90
52849;DHT22;38714;53.180;5.812;2024-03-02T03:52:21;7.80;99.90
52849;DHT22;38714;53.180;5.812;2024-03-02T03:54:47;7.80;99.90
52849;DHT22;38714;53.180;5.812;2024-03-02T03:57:12;7.70;99.90
52849;DHT22;38714;53.180;5.812;2024-03-02T03:59:38;7.70;99.90
52849;DHT22;38714;53.180;5.812;2024-03-02T04:02:04;7.70;99.90
52849;DHT22;38714;53.180;5.812;2024-03-02T04:04:29;7.70;99.90
52849;DHT22;38714;53.180;5.812;2024-03-02T04:06:55;7.70;99.90
52849;DHT22;38714;53.180;5.812;2024-03-02T04:09:21;7.70;99.90
52849;DHT22;38714;53.180;5.812;2024-03-02T04:11:46;7.70;99.90
52849;DHT22;38714;53.180;5.812;2024-03-02T04:14:12;7.80;99.90
52849;DHT22;38714;53.180;5.812;2024-03-02T04:16:38;7.70;99.90
52849;DHT22;38714;53.180;5.812;2024-03-02T04:19:04;7.70;99.90
52849;DHT22;38714;53.180;5.812;2024-03-02T04:21:30;7.70;99.90
52849;DHT22;38714;53.180;5.812;2024-03-02T04:23:56;7.70;99.90
52849;DHT22;38714;53.180;5.812;2024-03-02T04:26:24;7.60;99.90
52849;DHT22;38714;53.180;5.812;2024-03-02T04:28:51;7.60;99.90
52849;DHT22;38714;53.180;5.812;2024-03-02T04:31:16;7.60;99.90
52849;DHT22;38714;53.180;5.812;2024-03-02T04:33:42;7.60;99.90
52849;DHT22;38714;53.180;5.812;2024-03-02T04:36:08;7.60;99.90
52849;DHT22;38714;53.180;5.812;2024-03-02T04:38:39;7.60;99.90
52849;DHT22;38714;53.180;5.812;2024-03-02T04:41:06;7.60;99.90
52849;DHT22;38714;53.180;5.812;2024-03-02T04:43:32;7.50;99.90
52849;DHT22;38714;53.180;5.812;2024-03-02T04:45:58;7.50;99.90
52849;DHT22;38714;53.180;5.812;2024-03-02T04:48:24;7.50;99.90
52849;DHT22;38714;53.180;5.812;2024-03-02T04:50:49;7.50;99.90
52849;DHT22;38714;53.180;5.812;2024-03-02T04:53:15;7.50;99.90
52849;DHT22;38714;53.180;5.812;2024-03-02T04:55:41;7.50;99.90
52849;DHT22;38714;53.180;5.812;2024-03-02T04:58:06;7.50;99.90
52849;DHT22;38714;53.180;5.812;2024-03-02T05:00:35;7.50;99.90
52849;DHT22;38714;53.180;5.812;2024-03-02T05:03:04;7.40;99.90
52849;DHT22;38714;53.180;5.812;2024-03-02T05:05:30;7.40;99.90
52849;DHT22;38714;53.180;5.812;2024-03-02T05:07:55;7.40;99.90
52849;DHT22;38714;53.180;5.812;2024-03-02T05:10:21;7.40;99.90
52849;DHT22;38714;53.180;5.812;2024-03-02T05:12:46;7.30;99.90
52849;DHT22;38714;53.180;5.812;2024-03-02T05:15:13;7.40;99.90
52849;DHT22;38714;53.180;5.812;2024-03-02T05:17:40;7.30;99.90
52849;DHT22;38714;53.180;5.812;2024-03-02T05:20:06;7.30;99.90
52849;DHT22;38714;53.180;5.812;2024-03-02T05:22:33;7.20;99.90
52849;DHT22;38714;53.180;5.812;2024-03-02T05:25:00;7.20;99.90
52849;DHT22;38714;53.180;5.812;2024-03-02T05:27:26;7.10;99.90
52849;DHT22;38714;53.180;5.812;2024-03-02T05:29:52;7.20;99.90
52849;DHT22;38714;53.180;5.812;2024-03-02T05:32:17;7.10;99.90
52849;DHT22;38714;53.180;5.812;2024-03-02T05:34:43;7.00;99.90
52849;DHT22;38714;53.180;5.812;2024-03-02T05:37:09;7.00;99.90
52849;DHT22;38714;53.180;5.812;2024-03-02T05:39:34;6.90;99.90
52849;DHT22;38714;53.180;5.812;2024-03-02T05:42:00;6.90;99.90
52849;DHT22;38714;53.180;5.812;2024-03-02T05:44:25;6.80;99.90
52849;DHT22;38714;53.180;5.812;2024-03-02T05:46:51;6.80;99.90
52849;DHT22;38714;53.180;5.812;2024-03-02T05:49:16;6.80;99.90
52849;DHT22;38714;53.180;5.812;2024-03-02T05:51:42;6.80;99.90
52849;DHT22;38714;53.180;5.812;2024-03-02T05:54:07;6.70;99.90
52849;DHT22;38714;53.180;5.812;2024-03-02T05:56:33;6.70;99.90
52849;DHT22;38714;53.180;5.812;2024-03-02T05:58:58;6.60;99.90
52849;DHT22;38714;53.180;5.812;2024-03-02T06:01:47;6.60;99.90
52849;DHT22;38714;53.180;5.812;2024-03-02T06:04:14;6.50;99.90
52849;DHT22;38714;53.180;5.812;2024-03-02T06:06:40;6.50;99.90
52849;DHT22;38714;53.180;5.812;2024-03-02T06:09:06;6.50;99.90
52849;DHT22;38714;53.180;5.812;2024-03-02T06:11:34;6.40;99.90
52849;DHT22;38714;53.180;5.812;2024-03-02T06:13:59;6.40;99.90
52849;DHT22;38714;53.180;5.812;2024-03-02T06:16:25;6.30;99.90
52849;DHT22;38714;53.180;5.812;2024-03-02T06:18:50;6.30;99.90
52849;DHT22;38714;53.180;5.812;2024-03-02T06:21:16;6.20;99.90
52849;DHT22;38714;53.180;5.812;2024-03-02T06:23:43;6.20;99.90
52849;DHT22;38714;53.180;5.812;2024-03-02T06:26:09;6.20;99.90
52849;DHT22;38714;53.180;5.812;2024-03-02T06:28:35;6.20;99.90
52849;DHT22;38714;53.180;5.812;2024-03-02T06:31:01;6.20;99.90
52849;DHT22;38714;53.180;5.812;2024-03-02T06:33:27;6.20;99.90
52849;DHT22;38714;53.180;5.812;2024-03-02T06:35:54;6.20;99.90
52849;DHT22;38714;53.180;5.812;2024-03-02T06:38:19;6.20;99.90
52849;DHT22;38714;53.180;5.812;2024-03-02T06:40:45;6.20;99.90
52849;DHT22;38714;53.180;5.812;2024-03-02T06:43:10;6.10;99.90
52849;DHT22;38714;53.180;5.812;2024-03-02T06:45:36;6.20;99.90
52849;DHT22;38714;53.180;5.812;2024-03-02T06:48:02;6.10;99.90
52849;DHT22;38714;53.180;5.812;2024-03-02T06:50:27;6.20;99.90
52849;DHT22;38714;53.180;5.812;2024-03-02T06:52:54;6.20;99.90
52849;DHT22;38714;53.180;5.812;2024-03-02T06:55:21;6.10;99.90
52849;DHT22;38714;53.180;5.812;2024-03-02T06:57:47;6.10;99.90
52849;DHT22;38714;53.180;5.812;2024-03-02T07:00:13;6.00;99.90
52849;DHT22;38714;53.180;5.812;2024-03-02T07:02:39;6.10;99.90
52849;DHT22;38714;53.180;5.812;2024-03-02T07:05:07;6.10;99.90
52849;DHT22;38714;53.180;5.812;2024-03-02T07:07:33;6.00;99.90
52849;DHT22;38714;53.180;5.812;2024-03-02T07:10:00;6.00;99.90
52849;DHT22;38714;53.180;5.812;2024-03-02T07:12:26;6.00;99.90
52849;DHT22;38714;53.180;5.812;2024-03-02T07:14:51;6.10;99.90
52849;DHT22;38714;53.180;5.812;2024-03-02T07:17:29;6.10;99.90
52849;DHT22;38714;53.180;5.812;2024-03-02T07:19:55;6.10;99.90
52849;DHT22;38714;53.180;5.812;2024-03-02T07:22:21;6.10;99.90
52849;DHT22;38714;53.180;5.812;2024-03-02T07:24:47;6.10;99.90
52849;DHT22;38714;53.180;5.812;2024-03-02T07:27:13;6.10;99.90
52849;DHT22;38714;53.180;5.812;2024-03-02T07:29:39;6.10;99.90
52849;DHT22;38714;53.180;5.812;2024-03-02T07:32:06;6.10;99.90
52849;DHT22;38714;53.180;5.812;2024-03-02T07:34:31;6.20;99.90
52849;DHT22;38714;53.180;5.812;2024-03-02T07:36:57;6.20;99.90
52849;DHT22;38714;53.180;5.812;2024-03-02T07:39:24;6.20;99.90
52849;DHT22;38714;53.180;5.812;2024-03-02T07:41:49;6.20;99.90
52849;DHT22;38714;53.180;5.812;2024-03-02T07:44:15;6.20;99.90
52849;DHT22;38714;53.180;5.812;2024-03-02T07:46:42;6.30;99.90
52849;DHT22;38714;53.180;5.812;2024-03-02T07:49:08;6.30;99.90
52849;DHT22;38714;53.180;5.812;2024-03-02T07:51:34;6.20;99.90
52849;DHT22;38714;53.180;5.812;2024-03-02T07:54:00;6.30;99.90
52849;DHT22;38714;53.180;5.812;2024-03-02T07:56:26;6.30;99.90
52849;DHT22;38714;53.180;5.812;2024-03-02T07:58:52;6.40;99.90
52849;DHT22;38714;53.180;5.812;2024-03-02T08:01:17;6.40;99.90
52849;DHT22;38714;53.180;5.812;2024-03-02T08:03:43;6.40;99.90
52849;DHT22;38714;53.180;5.812;2024-03-02T08:06:17;6.50;99.90
52849;DHT22;38714;53.180;5.812;2024-03-02T08:08:42;6.50;99.90
52849;DHT22;38714;53.180;5.812;2024-03-02T08:11:08;6.50;99.90
52849;DHT22;38714;53.180;5.812;2024-03-02T08:13:34;6.50;99.90
52849;DHT22;38714;53.180;5.812;2024-03-02T08:16:00;6.50;99.90
52849;DHT22;38714;53.180;5.812;2024-03-02T08:18:28;6.60;99.90
52849;DHT22;38714;53.180;5.812;2024-03-02T08:20:54;6.60;99.90
52849;DHT22;38714;53.180;5.812;2024-03-02T08:23:20;6.70;99.90
52849;DHT22;38714;53.180;5.812;2024-03-02T08:25:45;6.70;99.90
52849;DHT22;38714;53.180;5.812;2024-03-02T08:28:11;6.70;99.90
52849;DHT22;38714;53.180;5.812;2024-03-02T08:30:36;6.70;99.90
52849;DHT22;38714;53.180;5.812;2024-03-02T08:33:02;6.80;99.90
52849;DHT22;38714;53.180;5.812;2024-03-02T08:35:28;6.80;99.90
52849;DHT22;38714;53.180;5.812;2024-03-02T08:37:53;6.80;99.90
52849;DHT22;38714;53.180;5.812;2024-03-02T08:40:19;6.80;99.90
52849;DHT22;38714;53.180;5.812;2024-03-02T08:42:45;6.90;99.90
52849;DHT22;38714;53.180;5.812;2024-03-02T08:45:11;7.00;99.90
52849;DHT22;38714;53.180;5.812;2024-03-02T08:47:36;6.90;99.90
52849;DHT22;38714;53.180;5.812;2024-03-02T08:50:02;6.90;99.90
52849;DHT22;38714;53.180;5.812;2024-03-02T08:52:29;7.00;99.90
52849;DHT22;38714;53.180;5.812;2024-03-02T08:54:54;7.00;99.90
52849;DHT22;38714;53.180;5.812;2024-03-02T08:57:20;7.00;99.90
52849;DHT22;38714;53.180;5.812;2024-03-02T08:59:45;7.10;99.90
52849;DHT22;38714;53.180;5.812;2024-03-02T09:02:11;7.10;99.90
52849;DHT22;38714;53.180;5.812;2024-03-02T09:04:37;7.10;99.90
52849;DHT22;38714;53.180;5.812;2024-03-02T09:07:02;7.20;99.90
52849;DHT22;38714;53.180;5.812;2024-03-02T09:09:28;7.20;99.90
52849;DHT22;38714;53.180;5.812;2024-03-02T09:11:54;7.30;99.90
52849;DHT22;38714;53.180;5.812;2024-03-02T09:14:23;7.30;99.90
52849;DHT22;38714;53.180;5.812;2024-03-02T09:16:49;7.40;99.90
52849;DHT22;38714;53.180;5.812;2024-03-02T09:19:14;7.40;99.90
52849;DHT22;38714;53.180;5.812;2024-03-02T09:21:41;7.50;99.90
52849;DHT22;38714;53.180;5.812;2024-03-02T09:24:07;7.50;99.90
52849;DHT22;38714;53.180;5.812;2024-03-02T09:26:32;7.50;99.90
52849;DHT22;38714;53.180;5.812;2024-03-02T09:28:58;7.50;99.90
52849;DHT22;38714;53.180;5.812;2024-03-02T09:31:23;7.50;99.90
52849;DHT22;38714;53.180;5.812;2024-03-02T09:33:49;7.50;99.90
52849;DHT22;38714;53.180;5.812;2024-03-02T09:36:22;7.60;99.90
52849;DHT22;38714;53.180;5.812;2024-03-02T09:38:47;7.60;99.90
52849;DHT22;38714;53.180;5.812;2024-03-02T09:41:14;7.60;99.90
52849;DHT22;38714;53.180;5.812;2024-03-02T09:43:40;7.60;99.90
52849;DHT22;38714;53.180;5.812;2024-03-02T09:46:10;7.70;99.90
52849;DHT22;38714;53.180;5.812;2024-03-02T09:48:36;7.70;99.90
52849;DHT22;38714;53.180;5.812;2024-03-02T09:51:04;7.80;99.90
52849;DHT22;38714;53.180;5.812;2024-03-02T09:53:32;7.80;99.90
52849;DHT22;38714;53.180;5.812;2024-03-02T09:55:59;7.90;99.90
52849;DHT22;38714;53.180;5.812;2024-03-02T09:58:25;7.90;99.90
52849;DHT22;38714;53.180;5.812;2024-03-02T10:00:50;8.00;99.90
52849;DHT22;38714;53.180;5.812;2024-03-02T10:03:18;8.00;99.90
52849;DHT22;38714;53.180;5.812;2024-03-02T10:05:44;8.00;99.90
52849;DHT22;38714;53.180;5.812;2024-03-02T10:08:09;8.10;99.90
52849;DHT22;38714;53.180;5.812;2024-03-02T10:10:39;8.10;99.90
52849;DHT22;38714;53.180;5.812;2024-03-02T10:13:09;8.10;99.90
52849;DHT22;38714;53.180;5.812;2024-03-02T10:15:37;8.10;99.90
52849;DHT22;38714;53.180;5.812;2024-03-02T10:18:09;8.10;99.90
52849;DHT22;38714;53.180;5.812;2024-03-02T10:20:36;8.10;99.90
52849;DHT22;38714;53.180;5.812;2024-03-02T10:23:17;8.10;99.90
52849;DHT22;38714;53.180;5.812;2024-03-02T10:25:43;8.20;99.90
52849;DHT22;38714;53.180;5.812;2024-03-02T10:28:09;8.20;99.90
52849;DHT22;38714;53.180;5.812;2024-03-02T10:30:36;8.30;99.90
52849;DHT22;38714;53.180;5.812;2024-03-02T10:33:02;8.30;99.90
52849;DHT22;38714;53.180;5.812;2024-03-02T10:35:28;8.30;99.90
52849;DHT22;38714;53.180;5.812;2024-03-02T10:37:54;8.30;99.90
52849;DHT22;38714;53.180;5.812;2024-03-02T10:40:23;8.40;99.90
52849;DHT22;38714;53.180;5.812;2024-03-02T10:42:52;8.40;99.90
52849;DHT22;38714;53.180;5.812;2024-03-02T10:45:20;8.40;99.90
52849;DHT22;38714;53.180;5.812;2024-03-02T10:47:47;8.50;99.90
52849;DHT22;38714;53.180;5.812;2024-03-02T10:50:13;8.50;99.90
52849;DHT22;38714;53.180;5.812;2024-03-02T10:52:39;8.50;99.90
52849;DHT22;38714;53.180;5.812;2024-03-02T10:55:06;8.50;99.90
52849;DHT22;38714;53.180;5.812;2024-03-02T10:57:53;8.60;99.90
52849;DHT22;38714;53.180;5.812;2024-03-02T11:00:19;8.60;99.90
52849;DHT22;38714;53.180;5.812;2024-03-02T11:02:51;8.60;99.90
52849;DHT22;38714;53.180;5.812;2024-03-02T11:05:27;8.60;99.90
52849;DHT22;38714;53.180;5.812;2024-03-02T11:08:06;8.70;99.90
52849;DHT22;38714;53.180;5.812;2024-03-02T11:10:35;8.70;99.90
52849;DHT22;38714;53.180;5.812;2024-03-02T11:13:05;8.70;99.90
52849;DHT22;38714;53.180;5.812;2024-03-02T11:15:35;8.70;99.90
52849;DHT22;38714;53.180;5.812;2024-03-02T11:18:04;8.80;99.90
52849;DHT22;38714;53.180;5.812;2024-03-02T11:20:32;8.80;99.90
52849;DHT22;38714;53.180;5.812;2024-03-02T11:22:58;8.90;99.90
52849;DHT22;38714;53.180;5.812;2024-03-02T11:25:31;8.90;99.90
52849;DHT22;38714;53.180;5.812;2024-03-02T11:28:01;8.90;99.90
52849;DHT22;38714;53.180;5.812;2024-03-02T11:33:02;9.00;99.90
52849;DHT22;38714;53.180;5.812;2024-03-02T11:35:40;9.10;99.90
52849;DHT22;38714;53.180;5.812;2024-03-02T11:38:09;9.10;99.90
52849;DHT22;38714;53.180;5.812;2024-03-02T11:40:35;9.10;99.90
52849;DHT22;38714;53.180;5.812;2024-03-02T11:43:01;9.10;99.90
52849;DHT22;38714;53.180;5.812;2024-03-02T11:45:27;9.10;99.90
52849;DHT22;38714;53.180;5.812;2024-03-02T11:47:58;9.20;99.90
52849;DHT22;38714;53.180;5.812;2024-03-02T11:50:35;9.20;99.90
52849;DHT22;38714;53.180;5.812;2024-03-02T11:53:07;9.30;99.90
52849;DHT22;38714;53.180;5.812;2024-03-02T11:55:37;9.30;99.90
52849;DHT22;38714;53.180;5.812;2024-03-02T11:58:07;9.30;99.90
52849;DHT22;38714;53.180;5.812;2024-03-02T12:00:32;9.30;99.90
52849;DHT22;38714;53.180;5.812;2024-03-02T12:03:01;9.30;99.90
52849;DHT22;38714;53.180;5.812;2024-03-02T12:05:28;9.30;99.90
52849;DHT22;38714;53.180;5.812;2024-03-02T12:08:01;9.40;99.90
52849;DHT22;38714;53.180;5.812;2024-03-02T12:10:28;9.40;99.90
52849;DHT22;38714;53.180;5.812;2024-03-02T12:13:01;9.40;99.90
52849;DHT22;38714;53.180;5.812;2024-03-02T12:15:34;9.40;99.90
52849;DHT22;38714;53.180;5.812;2024-03-02T12:18:02;9.40;99.90
52849;DHT22;38714;53.180;5.812;2024-03-02T12:20:29;9.50;99.90
52849;DHT22;38714;53.180;5.812;2024-03-02T12:22:58;9.50;99.90
52849;DHT22;38714;53.180;5.812;2024-03-02T12:25:24;9.50;99.90
52849;DHT22;38714;53.180;5.812;2024-03-02T12:27:53;9.60;99.90
52849;DHT22;38714;53.180;5.812;2024-03-02T12:30:20;9.50;99.90
52849;DHT22;38714;53.180;5.812;2024-03-02T12:32:47;9.60;99.90
52849;DHT22;38714;53.180;5.812;2024-03-02T12:35:13;9.60;99.90
52849;DHT22;38714;53.180;5.812;2024-03-02T12:37:49;9.60;99.90
52849;DHT22;38714;53.180;5.812;2024-03-02T12:40:17;9.60;99.90
52849;DHT22;38714;53.180;5.812;2024-03-02T12:42:47;9.60;99.90
52849;DHT22;38714;53.180;5.812;2024-03-02T12:45:15;9.60;99.90
52849;DHT22;38714;53.180;5.812;2024-03-02T12:47:41;9.60;99.90
52849;DHT22;38714;53.180;5.812;2024-03-02T12:50:08;9.60;99.90
52849;DHT22;38714;53.180;5.812;2024-03-02T12:52:34;9.70;99.90
52849;DHT22;38714;53.180;5.812;2024-03-02T12:55:01;9.70;99.90
52849;DHT22;38714;53.180;5.812;2024-03-02T12:57:29;9.70;99.90
52849;DHT22;38714;53.180;5.812;2024-03-02T12:59:59;9.80;99.90
52849;DHT22;38714;53.180;5.812;2024-03-02T13:02:28;9.80;99.90
52849;DHT22;38714;53.180;5.812;2024-03-02T13:04:55;9.80;99.90
52849;DHT22;38714;53.180;5.812;2024-03-02T13:07:21;9.80;99.90
52849;DHT22;38714;53.180;5.812;2024-03-02T13:09:49;9.70;99.90
52849;DHT22;38714;53.180;5.812;2024-03-02T13:12:16;9.70;99.90
52849;DHT22;38714;53.180;5.812;2024-03-02T13:14:42;9.70;99.90
52849;DHT22;38714;53.180;5.812;2024-03-02T13:17:08;9.70;99.90
52849;DHT22;38714;53.180;5.812;2024-03-02T13:19:34;9.70;99.90
52849;DHT22;38714;53.180;5.812;2024-03-02T13:22:00;9.70;99.90
52849;DHT22;38714;53.180;5.812;2024-03-02T13:24:27;9.80;99.90
52849;DHT22;38714;53.180;5.812;2024-03-02T13:26:56;9.80;99.90
52849;DHT22;38714;53.180;5.812;2024-03-02T13:29:23;9.80;99.90
52849;DHT22;38714;53.180;5.812;2024-03-02T13:31:49;9.90;99.90
52849;DHT22;38714;53.180;5.812;2024-03-02T13:34:15;9.90;99.90
52849;DHT22;38714;53.180;5.812;2024-03-02T13:36:41;9.90;99.90
52849;DHT22;38714;53.180;5.812;2024-03-02T13:39:07;9.90;99.90
52849;DHT22;38714;53.180;5.812;2024-03-02T13:41:35;9.90;99.90
52849;DHT22;38714;53.180;5.812;2024-03-02T13:44:01;9.90;99.90
52849;DHT22;38714;53.180;5.812;2024-03-02T13:46:27;9.90;99.90
52849;DHT22;38714;53.180;5.812;2024-03-02T13:48:54;10.00;99.90
52849;DHT22;38714;53.180;5.812;2024-03-02T13:51:20;10.00;99.90
52849;DHT22;38714;53.180;5.812;2024-03-02T13:53:45;10.00;99.90
52849;DHT22;38714;53.180;5.812;2024-03-02T13:56:11;10.00;99.90
52849;DHT22;38714;53.180;5.812;2024-03-02T13:58:37;10.00;99.90
52849;DHT22;38714;53.180;5.812;2024-03-02T14:01:03;10.00;99.90
52849;DHT22;38714;53.180;5.812;2024-03-02T14:03:30;10.00;99.90
52849;DHT22;38714;53.180;5.812;2024-03-02T14:05:56;10.00;99.90
52849;DHT22;38714;53.180;5.812;2024-03-02T14:08:22;10.00;99.90
52849;DHT22;38714;53.180;5.812;2024-03-02T14:10:48;10.10;99.90
52849;DHT22;38714;53.180;5.812;2024-03-02T14:13:14;10.10;99.90
52849;DHT22;38714;53.180;5.812;2024-03-02T14:15:48;10.10;99.90
52849;DHT22;38714;53.180;5.812;2024-03-02T14:18:14;10.20;99.90
52849;DHT22;38714;53.180;5.812;2024-03-02T14:20:39;10.20;99.90
52849;DHT22;38714;53.180;5.812;2024-03-02T14:23:07;10.20;99.90
52849;DHT22;38714;53.180;5.812;2024-03-02T14:25:33;10.30;99.90
52849;DHT22;38714;53.180;5.812;2024-03-02T14:27:59;10.30;99.90
52849;DHT22;38714;53.180;5.812;2024-03-02T14:30:25;10.30;99.90
52849;DHT22;38714;53.180;5.812;2024-03-02T14:32:50;10.30;99.90
52849;DHT22;38714;53.180;5.812;2024-03-02T14:35:16;10.30;99.90
52849;DHT22;38714;53.180;5.812;2024-03-02T14:37:42;10.30;99.90
52849;DHT22;38714;53.180;5.812;2024-03-02T14:40:08;10.30;99.90
52849;DHT22;38714;53.180;5.812;2024-03-02T14:42:35;10.30;99.90
52849;DHT22;38714;53.180;5.812;2024-03-02T14:45:01;10.30;99.90
52849;DHT22;38714;53.180;5.812;2024-03-02T14:47:29;10.30;99.90
52849;DHT22;38714;53.180;5.812;2024-03-02T14:49:55;10.40;99.90
52849;DHT22;38714;53.180;5.812;2024-03-02T14:52:20;10.40;99.90
52849;DHT22;38714;53.180;5.812;2024-03-02T14:54:46;10.30;99.90
52849;DHT22;38714;53.180;5.812;2024-03-02T14:57:12;10.30;99.90
52849;DHT22;38714;53.180;5.812;2024-03-02T14:59:40;10.30;99.90
52849;DHT22;38714;53.180;5.812;2024-03-02T15:02:07;10.30;99.90
52849;DHT22;38714;53.180;5.812;2024-03-02T15:04:33;10.30;99.90
52849;DHT22;38714;53.180;5.812;2024-03-02T15:06:59;10.20;99.90
52849;DHT22;38714;53.180;5.812;2024-03-02T15:09:24;10.20;99.90
52849;DHT22;38714;53.180;5.812;2024-03-02T15:11:52;10.20;99.90
52849;DHT22;38714;53.180;5.812;2024-03-02T15:14:17;10.10;99.90
52849;DHT22;38714;53.180;5.812;2024-03-02T15:16:43;10.10;99.90
52849;DHT22;38714;53.180;5.812;2024-03-02T15:19:09;10.10;99.90
52849;DHT22;38714;53.180;5.812;2024-03-02T15:21:35;10.00;99.90
52849;DHT22;38714;53.180;5.812;2024-03-02T15:24:00;10.00;99.90
52849;DHT22;38714;53.180;5.812;2024-03-02T15:26:26;10.00;99.90
52849;DHT22;38714;53.180;5.812;2024-03-02T15:28:52;10.00;99.90
52849;DHT22;38714;53.180;5.812;2024-03-02T15:31:19;10.00;99.90
52849;DHT22;38714;53.180;5.812;2024-03-02T15:33:44;9.90;99.90
52849;DHT22;38714;53.180;5.812;2024-03-02T15:36:10;9.90;99.90
52849;DHT22;38714;53.180;5.812;2024-03-02T15:38:35;9.90;99.90
52849;DHT22;38714;53.180;5.812;2024-03-02T15:41:03;9.90;99.90
52849;DHT22;38714;53.180;5.812;2024-03-02T15:43:29;9.90;99.90
52849;DHT22;38714;53.180;5.812;2024-03-02T15:45:56;9.90;99.90